Tawakoni's Hourly Summary for Saturday, April 15, 2017
Hour Temp
(f)
RH
(%)
Solar Rad.
(MJ/m2)
Rainfall
(in)
Wind
(mph)
4/15/2017 12:00 AM 66 68 0 0 4.58
4/15/2017 1:00 AM 65 72 0 0 5.2
4/15/2017 2:00 AM 65 76 0 0 5.71
4/15/2017 3:00 AM 65 81 0 0 5.42
4/15/2017 4:00 AM 64 85 0 0 4.05
4/15/2017 5:00 AM 62 89 0 0 3.2
4/15/2017 6:00 AM 62 93 0 0 4.21
4/15/2017 7:00 AM 62 93 0 0 4.87
4/15/2017 8:00 AM 63 93 0.13 0 5.32
4/15/2017 9:00 AM 64 87 0.55 0 5.85
4/15/2017 10:00 AM 67 73 1.07 0 7.78
4/15/2017 11:00 AM 70 68 2.02 0 8.8
4/15/2017 12:00 PM 72 62 2.76 0 8.43
4/15/2017 1:00 PM 73 57 2.89 0 8.18
4/15/2017 2:00 PM 75 54 3.27 0 8.68
4/15/2017 3:00 PM 76 54 2.6 0 8.5
4/15/2017 4:00 PM 76 52 2.28 0 8.67
4/15/2017 5:00 PM 76 52 1.44 0 7.17
4/15/2017 6:00 PM 76 53 1.02 0 6.26
4/15/2017 7:00 PM 74 57 0.24 0 4.5
4/15/2017 8:00 PM 73 62 0.11 0 1.9
4/15/2017 9:00 PM 69 70 0 0 1.71
4/15/2017 10:00 PM 69 71 0 0 3.59
4/15/2017 11:00 PM 68 72 0 0 3.91
Data Summary 68 70 20.38 0.00 5.69